createdAt,value
2022-09-28T00:02:00.846Z,19.60
2022-09-28T00:04:31.212Z,19.70
2022-09-28T00:07:00.112Z,19.50
2022-09-28T00:09:29.088Z,19.40
2022-09-28T00:11:58.410Z,19.40
2022-09-28T00:14:27.750Z,19.40
2022-09-28T00:16:56.821Z,19.40
2022-09-28T00:19:25.672Z,19.40
2022-09-28T00:21:55.868Z,19.20
2022-09-28T00:24:27.670Z,19.20
2022-09-28T00:26:58.599Z,19.20
2022-09-28T00:29:29.057Z,19.20
2022-09-28T00:32:00.859Z,19.20
2022-09-28T00:34:32.156Z,19.20
2022-09-28T00:37:09.019Z,19.30
2022-09-28T00:39:38.904Z,19.30
2022-09-28T00:42:14.616Z,19.30
2022-09-28T00:44:48.874Z,19.10
2022-09-28T00:47:38.656Z,19.00
2022-09-28T00:50:16.196Z,18.90
2022-09-28T00:52:50.382Z,19.00
2022-09-28T00:55:23.979Z,19.00
2022-09-28T00:57:58.071Z,19.00
2022-09-28T01:00:27.507Z,19.10
2022-09-28T01:02:56.681Z,19.00
2022-09-28T01:05:26.130Z,18.90
2022-09-28T01:07:57.828Z,18.90
2022-09-28T01:10:27.053Z,18.90
2022-09-28T01:12:56.916Z,18.80
2022-09-28T01:15:30.440Z,18.80
2022-09-28T01:18:12.982Z,18.80
2022-09-28T01:20:58.365Z,18.70
2022-09-28T01:23:59.672Z,18.70
2022-09-28T01:26:52.222Z,18.70
2022-09-28T01:29:30.857Z,18.80
2022-09-28T01:32:12.888Z,18.60
2022-09-28T01:34:49.434Z,18.60
2022-09-28T01:37:22.601Z,18.50
2022-09-28T01:39:55.474Z,18.50
2022-09-28T01:42:28.944Z,18.50
2022-09-28T01:45:05.113Z,18.50
2022-09-28T01:47:38.198Z,18.50
2022-09-28T01:50:12.058Z,18.40
2022-09-28T01:52:48.498Z,18.30
2022-09-28T01:55:26.091Z,18.30
2022-09-28T01:58:03.427Z,18.30
2022-09-28T02:00:36.285Z,18.10
2022-09-28T02:03:11.029Z,18.10
2022-09-28T02:05:56.259Z,18.10
2022-09-28T02:08:30.379Z,18.10
2022-09-28T02:11:04.994Z,18.10
2022-09-28T02:13:38.812Z,18.00
2022-09-28T02:16:15.217Z,18.00
2022-09-28T02:18:45.185Z,18.00
2022-09-28T02:21:24.215Z,17.90
2022-09-28T02:23:57.812Z,18.00
2022-09-28T02:26:33.290Z,17.90
2022-09-28T02:29:03.709Z,17.90
2022-09-28T02:31:33.027Z,17.90
2022-09-28T02:34:02.077Z,18.00
2022-09-28T02:36:31.275Z,17.90
2022-09-28T02:39:01.231Z,17.90
2022-09-28T02:41:48.040Z,18.00
2022-09-28T02:44:35.416Z,18.00
2022-09-28T02:47:12.766Z,18.00
2022-09-28T02:49:54.131Z,18.00
2022-09-28T02:52:42.868Z,18.00
2022-09-28T02:55:24.267Z,18.00
2022-09-28T02:58:07.076Z,18.00
2022-09-28T03:00:46.588Z,18.00
2022-09-28T03:03:21.614Z,18.00
2022-09-28T03:06:00.452Z,18.00
2022-09-28T03:08:38.585Z,18.10
2022-09-28T03:11:15.092Z,17.90
2022-09-28T03:13:44.854Z,17.90
2022-09-28T03:16:18.148Z,17.90
2022-09-28T03:18:49.712Z,18.00
2022-09-28T03:21:20.299Z,18.10
2022-09-28T03:23:49.310Z,18.10
2022-09-28T03:26:19.929Z,18.00
2022-09-28T03:28:48.843Z,18.10
2022-09-28T03:31:25.354Z,18.10
2022-09-28T03:33:54.312Z,18.10
2022-09-28T03:36:23.263Z,18.00
2022-09-28T03:38:55.349Z,18.00
2022-09-28T03:41:27.816Z,18.00
2022-09-28T03:43:56.649Z,18.10
2022-09-28T03:46:28.821Z,18.20
2022-09-28T03:49:02.522Z,18.20
2022-09-28T03:51:31.375Z,18.20
2022-09-28T03:54:00.206Z,18.30
2022-09-28T03:56:29.228Z,18.20
2022-09-28T03:58:58.184Z,18.10
2022-09-28T04:01:29.437Z,18.20
2022-09-28T04:03:58.631Z,18.30
2022-09-28T04:06:28.026Z,18.10
2022-09-28T04:08:56.875Z,18.20
2022-09-28T04:11:26.317Z,18.20
2022-09-28T04:13:55.174Z,18.10
2022-09-28T04:16:25.140Z,18.00
2022-09-28T04:19:06.091Z,18.10
2022-09-28T04:21:40.923Z,18.00
2022-09-28T04:24:12.716Z,18.00
2022-09-28T04:26:41.614Z,18.00
2022-09-28T04:29:17.037Z,18.10
2022-09-28T04:31:51.799Z,18.10
2022-09-28T04:34:24.697Z,18.20
2022-09-28T04:36:53.472Z,18.30
2022-09-28T04:39:22.307Z,18.20
2022-09-28T04:41:54.839Z,18.40
2022-09-28T04:44:23.819Z,18.20
2022-09-28T04:47:01.718Z,18.10
2022-09-28T04:49:37.155Z,17.80
2022-09-28T04:52:17.201Z,17.80
2022-09-28T04:54:47.528Z,17.70
2022-09-28T04:57:16.317Z,17.60
2022-09-28T04:59:45.206Z,17.50
2022-09-28T05:02:15.243Z,17.50
2022-09-28T05:05:15.733Z,17.60
2022-09-28T05:07:59.925Z,17.50
2022-09-28T05:10:28.916Z,17.70
2022-09-28T05:12:57.785Z,17.70
2022-09-28T05:15:26.816Z,17.50
2022-09-28T05:17:55.996Z,17.60
2022-09-28T05:20:43.305Z,17.50
2022-09-28T05:23:12.933Z,17.40
2022-09-28T05:25:43.634Z,17.40
2022-09-28T05:28:28.396Z,17.40
2022-09-28T05:31:15.672Z,17.40
2022-09-28T05:34:06.318Z,17.50
2022-09-28T05:36:36.561Z,17.50
2022-09-28T05:39:05.549Z,17.40
2022-09-28T05:41:34.629Z,17.40
2022-09-28T05:44:03.760Z,17.30
2022-09-28T05:46:32.704Z,17.30
2022-09-28T05:49:03.235Z,17.40
2022-09-28T05:51:32.478Z,17.50
2022-09-28T05:54:05.959Z,17.50
2022-09-28T05:56:38.076Z,17.50
2022-09-28T05:59:09.465Z,17.60
2022-09-28T06:01:39.147Z,17.60
2022-09-28T06:04:11.090Z,17.80
2022-09-28T06:06:40.447Z,18.00
2022-09-28T06:09:10.920Z,18.00
2022-09-28T06:12:06.156Z,18.00
2022-09-28T06:14:41.949Z,17.90
2022-09-28T06:17:11.056Z,17.80
2022-09-28T06:19:40.295Z,17.80
2022-09-28T06:22:30.602Z,17.70
2022-09-28T06:25:10.351Z,17.60
2022-09-28T06:27:42.603Z,17.50
2022-09-28T06:30:12.422Z,17.50
2022-09-28T06:32:42.222Z,17.40
2022-09-28T06:35:11.531Z,17.50
2022-09-28T06:37:40.253Z,17.60
2022-09-28T06:40:11.684Z,17.60
2022-09-28T06:42:40.673Z,17.60
2022-09-28T06:45:27.488Z,17.60
2022-09-28T06:48:22.361Z,17.70
2022-09-28T06:50:51.840Z,17.80
2022-09-28T06:53:47.079Z,17.90
2022-09-28T06:56:37.237Z,18.00
2022-09-28T06:59:06.123Z,18.20
2022-09-28T07:01:36.416Z,18.10
2022-09-28T07:04:21.336Z,18.20
2022-09-28T07:07:10.528Z,18.10
2022-09-28T07:09:52.369Z,18.20
2022-09-28T07:12:33.325Z,18.50
2022-09-28T07:15:05.153Z,18.50
2022-09-28T07:17:40.374Z,18.70
2022-09-28T07:20:18.872Z,18.60
2022-09-28T07:22:53.725Z,18.50
2022-09-28T07:25:24.260Z,18.60
2022-09-28T07:28:13.612Z,18.40
2022-09-28T07:30:58.727Z,18.50
2022-09-28T07:33:56.853Z,18.70
2022-09-28T07:36:57.529Z,18.90
2022-09-28T07:39:26.479Z,18.90
2022-09-28T07:41:56.680Z,18.80
2022-09-28T07:44:30.728Z,19.00
2022-09-28T07:47:01.401Z,19.10
2022-09-28T07:49:53.072Z,19.10
2022-09-28T07:52:40.613Z,19.10
2022-09-28T07:55:18.089Z,19.30
2022-09-28T07:58:01.834Z,19.50
2022-09-28T08:01:05.491Z,19.70
2022-09-28T08:03:35.318Z,19.50
2022-09-28T08:06:06.684Z,19.80
2022-09-28T08:08:36.150Z,19.80
2022-09-28T08:11:07.612Z,19.80
2022-09-28T08:13:56.969Z,19.80
2022-09-28T08:16:57.721Z,19.70
2022-09-28T08:20:04.334Z,19.60
2022-09-28T08:22:33.988Z,19.70
2022-09-28T08:25:03.353Z,19.80
2022-09-28T08:27:32.233Z,19.80
2022-09-28T08:30:01.209Z,19.70
2022-09-28T08:32:53.957Z,19.80
2022-09-28T08:35:41.928Z,19.80
2022-09-28T08:38:40.000Z,19.90
2022-09-28T08:41:37.251Z,19.90
2022-09-28T08:44:24.109Z,20.20
2022-09-28T08:47:34.779Z,20.10
2022-09-28T08:50:30.025Z,20.10
2022-09-28T08:53:07.457Z,20.20
2022-09-28T08:56:08.991Z,20.30
2022-09-28T08:58:43.078Z,20.50
2022-09-28T09:01:16.677Z,20.60
2022-09-28T09:03:48.300Z,20.80
2022-09-28T09:06:54.613Z,20.60
2022-09-28T09:09:41.327Z,20.70
2022-09-28T09:12:19.550Z,20.80
2022-09-28T09:15:26.561Z,20.90
2022-09-28T09:18:06.601Z,20.80
2022-09-28T09:20:51.867Z,20.80
2022-09-28T09:23:40.201Z,20.90
2022-09-28T09:26:22.043Z,20.80
2022-09-28T09:29:12.654Z,20.90
2022-09-28T09:32:04.214Z,20.50
2022-09-28T09:35:11.732Z,20.90
2022-09-28T09:38:17.033Z,21.20
2022-09-28T09:41:10.183Z,21.40
2022-09-28T09:44:30.121Z,21.50
2022-09-28T09:47:13.625Z,21.50
2022-09-28T09:50:08.315Z,21.50
2022-09-28T09:52:48.033Z,21.30
2022-09-28T09:55:29.889Z,21.60
2022-09-28T09:58:25.163Z,21.70
2022-09-28T10:01:09.592Z,21.50
2022-09-28T10:03:59.132Z,21.20
2022-09-28T10:06:34.767Z,21.30
2022-09-28T10:09:06.376Z,21.80
2022-09-28T10:11:40.756Z,21.80
2022-09-28T10:14:17.048Z,21.90
2022-09-28T10:16:54.450Z,22.00
2022-09-28T10:19:44.849Z,22.10
2022-09-28T10:22:47.120Z,22.10
2022-09-28T10:25:19.844Z,22.20
2022-09-28T10:27:52.405Z,22.10
2022-09-28T10:30:24.944Z,22.10
2022-09-28T10:32:59.563Z,22.10
2022-09-28T10:35:43.720Z,22.20
2022-09-28T10:38:18.280Z,22.40
2022-09-28T10:40:55.985Z,22.40
2022-09-28T10:44:06.483Z,22.50
2022-09-28T10:46:42.815Z,22.60
2022-09-28T10:49:19.318Z,22.50
2022-09-28T10:51:58.965Z,22.50
2022-09-28T10:54:33.809Z,22.40
2022-09-28T10:57:03.154Z,22.40
2022-09-28T10:59:43.547Z,22.50
2022-09-28T11:02:41.544Z,22.40
2022-09-28T11:05:23.833Z,22.80
2022-09-28T11:07:56.924Z,23.00
2022-09-28T11:10:34.049Z,23.00
2022-09-28T11:13:14.125Z,23.10
2022-09-28T11:15:47.440Z,23.30
2022-09-28T11:18:32.490Z,23.40
2022-09-28T11:21:14.615Z,23.60
2022-09-28T11:24:05.986Z,23.40
2022-09-28T11:26:40.971Z,23.40
2022-09-28T11:29:27.854Z,23.30
2022-09-28T11:32:16.225Z,23.30
2022-09-28T11:35:05.242Z,23.30
2022-09-28T11:37:48.911Z,23.30
2022-09-28T11:40:44.240Z,23.50
2022-09-28T11:43:22.646Z,23.90
2022-09-28T11:45:59.686Z,24.20
2022-09-28T11:48:34.568Z,24.30
2022-09-28T11:51:13.626Z,24.20
2022-09-28T11:53:49.554Z,23.80
2022-09-28T11:56:27.806Z,23.80
2022-09-28T11:59:00.245Z,24.00
2022-09-28T12:01:45.191Z,24.00
2022-09-28T12:04:53.630Z,24.10
2022-09-28T12:07:32.593Z,24.20
2022-09-28T12:10:12.336Z,24.20
2022-09-28T12:12:49.178Z,24.40
2022-09-28T12:15:21.182Z,24.40
2022-09-28T12:17:54.272Z,24.30
2022-09-28T12:20:28.301Z,24.30
2022-09-28T12:23:07.327Z,24.60
2022-09-28T12:25:46.381Z,24.90
2022-09-28T12:28:26.306Z,25.10
2022-09-28T12:30:56.545Z,25.00
2022-09-28T12:33:25.489Z,25.00
2022-09-28T12:36:11.423Z,24.90
2022-09-28T12:39:14.698Z,24.80
2022-09-28T12:41:52.777Z,24.90
2022-09-28T12:44:37.163Z,24.90
2022-09-28T12:47:40.130Z,25.00
2022-09-28T12:50:38.150Z,25.20
2022-09-28T12:53:50.026Z,25.40
2022-09-28T12:56:30.232Z,25.30
2022-09-28T12:59:10.503Z,25.10
2022-09-28T13:02:00.430Z,25.10
2022-09-28T13:04:47.539Z,24.90
2022-09-28T13:07:23.557Z,24.80
2022-09-28T13:10:06.433Z,24.80
2022-09-28T13:12:49.588Z,24.80
2022-09-28T13:15:43.152Z,24.80
2022-09-28T13:18:19.984Z,25.00
2022-09-28T13:21:16.023Z,25.10
2022-09-28T13:23:47.831Z,25.10
2022-09-28T13:26:24.133Z,25.00
2022-09-28T13:28:57.389Z,25.10
2022-09-28T13:31:33.967Z,25.20
2022-09-28T13:34:07.497Z,25.30
2022-09-28T13:36:47.812Z,25.30
2022-09-28T13:39:38.255Z,25.30
2022-09-28T13:42:09.954Z,25.20
2022-09-28T13:45:22.787Z,25.20
2022-09-28T13:48:18.673Z,25.20
2022-09-28T13:51:11.462Z,25.30
2022-09-28T13:54:05.313Z,25.50
2022-09-28T13:56:48.464Z,25.50
2022-09-28T13:59:24.370Z,25.50
2022-09-28T14:02:06.612Z,25.50
2022-09-28T14:04:58.400Z,25.50
2022-09-28T14:07:48.048Z,25.60
2022-09-28T14:10:23.874Z,25.60
2022-09-28T14:12:54.221Z,25.60
2022-09-28T14:15:51.577Z,25.60
2022-09-28T14:18:31.689Z,25.60
2022-09-28T14:21:21.319Z,25.60
2022-09-28T14:24:19.562Z,25.60
2022-09-28T14:27:27.458Z,25.70
2022-09-28T14:30:08.839Z,25.80
2022-09-28T14:32:39.109Z,25.80
2022-09-28T14:35:19.064Z,25.80
2022-09-28T14:38:08.673Z,25.90
2022-09-28T14:41:13.001Z,26.00
2022-09-28T14:44:02.836Z,26.10
2022-09-28T14:46:37.689Z,26.20
2022-09-28T14:49:25.197Z,26.20
2022-09-28T14:52:05.452Z,26.10
2022-09-28T14:54:55.738Z,26.00
2022-09-28T14:57:27.558Z,26.00
2022-09-28T15:00:00.371Z,26.00
2022-09-28T15:02:34.596Z,26.10
2022-09-28T15:05:17.208Z,26.10
2022-09-28T15:07:50.955Z,26.00
2022-09-28T15:10:31.669Z,26.00
2022-09-28T15:13:02.513Z,26.00
2022-09-28T15:15:37.855Z,26.00
2022-09-28T15:18:31.290Z,25.90
2022-09-28T15:21:02.046Z,25.90
2022-09-28T15:23:39.021Z,25.70
2022-09-28T15:26:10.221Z,25.80
2022-09-28T15:28:46.141Z,25.70
2022-09-28T15:31:21.119Z,25.60
2022-09-28T15:34:07.672Z,25.60
2022-09-28T15:36:41.363Z,25.60
2022-09-28T15:39:16.635Z,25.50
2022-09-28T15:41:50.415Z,25.40
2022-09-28T15:44:30.179Z,25.40
2022-09-28T15:47:17.202Z,25.40
2022-09-28T15:49:57.247Z,25.30
2022-09-28T15:52:36.197Z,25.40
2022-09-28T15:55:20.921Z,25.40
2022-09-28T15:57:50.957Z,25.40
2022-09-28T16:00:29.195Z,25.50
2022-09-28T16:03:21.170Z,25.60
2022-09-28T16:05:53.111Z,25.40
2022-09-28T16:08:25.097Z,25.40
2022-09-28T16:11:06.007Z,25.30
2022-09-28T16:13:37.850Z,25.30
2022-09-28T16:16:07.723Z,25.20
2022-09-28T16:18:41.006Z,25.20
2022-09-28T16:21:40.784Z,25.10
2022-09-28T16:24:23.362Z,25.10
2022-09-28T16:27:02.825Z,25.10
2022-09-28T16:29:40.182Z,25.10
2022-09-28T16:32:38.508Z,25.10
2022-09-28T16:35:20.672Z,25.00
2022-09-28T16:37:59.937Z,25.00
2022-09-28T16:40:33.240Z,25.00
2022-09-28T16:43:12.153Z,25.00
2022-09-28T16:45:42.341Z,24.90
2022-09-28T16:48:19.510Z,24.90
2022-09-28T16:50:52.181Z,24.90
2022-09-28T16:53:40.333Z,24.80
2022-09-28T16:56:15.120Z,24.80
2022-09-28T16:58:50.928Z,24.70
2022-09-28T17:01:25.083Z,24.70
2022-09-28T17:03:56.978Z,24.60
2022-09-28T17:06:32.855Z,24.60
2022-09-28T17:09:06.983Z,24.60
2022-09-28T17:11:38.607Z,24.60
2022-09-28T17:14:14.263Z,24.50
2022-09-28T17:19:36.665Z,24.40
2022-09-28T17:22:08.205Z,24.40
2022-09-28T17:27:24.481Z,24.40
2022-09-28T17:29:58.086Z,24.30
2022-09-28T17:32:28.927Z,24.30
2022-09-28T17:35:19.841Z,24.20
2022-09-28T17:37:48.895Z,24.20
2022-09-28T17:40:23.735Z,24.10
2022-09-28T17:43:00.303Z,24.10
2022-09-28T17:45:33.487Z,24.00
2022-09-28T17:48:03.513Z,24.00
2022-09-28T17:50:36.230Z,24.00
2022-09-28T17:53:08.772Z,23.90
2022-09-28T17:55:39.561Z,23.90
2022-09-28T17:58:18.277Z,23.80
2022-09-28T18:00:55.727Z,23.80
2022-09-28T18:03:26.542Z,23.80
2022-09-28T18:06:04.582Z,23.70
2022-09-28T18:08:39.699Z,23.70
2022-09-28T18:11:09.824Z,23.70
2022-09-28T18:13:40.849Z,23.70
2022-09-28T18:16:12.660Z,23.60
2022-09-28T18:18:42.206Z,23.60
2022-09-28T18:21:11.756Z,23.60
2022-09-28T18:23:41.263Z,23.50
2022-09-28T18:26:13.958Z,23.40
2022-09-28T18:28:43.543Z,23.50
2022-09-28T18:31:19.428Z,23.50
2022-09-28T18:33:50.496Z,23.50
2022-09-28T18:36:19.708Z,23.40
2022-09-28T18:38:49.501Z,23.40
2022-09-28T18:41:19.005Z,23.40
2022-09-28T18:43:50.784Z,23.40
2022-09-28T18:46:21.939Z,23.40
2022-09-28T18:48:51.725Z,23.30
2022-09-28T18:51:21.075Z,23.30
2022-09-28T18:53:50.526Z,23.30
2022-09-28T18:56:21.296Z,23.30
2022-09-28T18:58:52.952Z,23.30
2022-09-28T19:01:31.305Z,23.20
2022-09-28T19:04:02.071Z,23.20
2022-09-28T19:06:32.852Z,23.20
2022-09-28T19:09:03.341Z,23.10
2022-09-28T19:11:32.990Z,23.10
2022-09-28T19:14:03.872Z,23.10
2022-09-28T19:16:37.080Z,23.10
2022-09-28T19:19:07.640Z,23.00
2022-09-28T19:21:40.264Z,23.00
2022-09-28T19:24:12.040Z,23.00
2022-09-28T19:26:42.269Z,23.00
2022-09-28T19:29:13.495Z,23.00
2022-09-28T19:31:46.779Z,23.00
2022-09-28T19:34:17.976Z,22.90
2022-09-28T19:36:49.688Z,22.90
2022-09-28T19:39:20.612Z,22.90
2022-09-28T19:41:53.215Z,22.90
2022-09-28T19:44:26.662Z,22.80
2022-09-28T19:47:04.414Z,22.80
2022-09-28T19:49:37.174Z,22.80
2022-09-28T19:52:17.310Z,22.80
2022-09-28T19:54:52.755Z,22.70
2022-09-28T19:57:22.787Z,22.70
2022-09-28T19:59:55.787Z,22.70
2022-09-28T20:02:31.189Z,22.70
2022-09-28T20:05:01.565Z,22.60
2022-09-28T20:07:33.498Z,22.60
2022-09-28T20:10:05.445Z,22.60
2022-09-28T20:12:35.934Z,22.50
2022-09-28T20:15:09.341Z,22.50
2022-09-28T20:17:44.219Z,22.50
2022-09-28T20:20:14.428Z,22.50
2022-09-28T20:22:44.244Z,22.50
2022-09-28T20:25:14.116Z,22.50
2022-09-28T20:27:44.167Z,22.30
2022-09-28T20:30:16.225Z,22.40
2022-09-28T20:32:49.637Z,22.30
2022-09-28T20:35:30.608Z,22.30
2022-09-28T20:38:09.235Z,22.20
2022-09-28T20:40:40.431Z,22.20
2022-09-28T20:43:11.166Z,22.20
2022-09-28T20:45:40.737Z,22.20
2022-09-28T20:48:12.670Z,22.20
2022-09-28T20:50:43.099Z,22.20
2022-09-28T20:53:13.219Z,22.10
2022-09-28T20:55:43.284Z,22.10
2022-09-28T20:58:12.754Z,22.10
2022-09-28T21:00:43.458Z,22.10
2022-09-28T21:03:14.917Z,22.00
2022-09-28T21:05:45.394Z,22.00
2022-09-28T21:08:15.401Z,21.90
2022-09-28T21:10:48.601Z,22.00
2022-09-28T21:13:18.074Z,22.00
2022-09-28T21:15:48.499Z,21.90
2022-09-28T21:18:20.688Z,22.00
2022-09-28T21:20:51.691Z,22.00
2022-09-28T21:23:24.921Z,22.00
2022-09-28T21:26:04.823Z,21.90
2022-09-28T21:28:35.677Z,21.80
2022-09-28T21:31:07.613Z,21.80
2022-09-28T21:33:38.698Z,21.80
2022-09-28T21:36:09.713Z,21.70
2022-09-28T21:38:39.684Z,21.80
2022-09-28T21:41:08.730Z,21.60
2022-09-28T21:43:38.618Z,21.70
2022-09-28T21:46:07.789Z,21.60
2022-09-28T21:48:38.410Z,21.50
2022-09-28T21:51:09.483Z,21.40
2022-09-28T21:53:39.359Z,21.30
2022-09-28T21:56:11.980Z,21.30
2022-09-28T21:58:41.440Z,21.20
2022-09-28T22:01:13.391Z,21.20
2022-09-28T22:03:45.191Z,21.20
2022-09-28T22:06:14.282Z,21.20
2022-09-28T22:08:44.098Z,21.00
2022-09-28T22:11:16.086Z,21.10
2022-09-28T22:13:46.748Z,21.10
2022-09-28T22:16:18.373Z,21.00
2022-09-28T22:18:50.026Z,21.10
2022-09-28T22:21:21.275Z,21.10
2022-09-28T22:23:51.468Z,21.00
2022-09-28T22:26:23.768Z,20.80
2022-09-28T22:28:54.327Z,20.90
2022-09-28T22:31:25.596Z,20.80
2022-09-28T22:33:57.067Z,20.80
2022-09-28T22:36:26.468Z,20.70
2022-09-28T22:38:58.078Z,20.80
2022-09-28T22:41:28.593Z,20.70
2022-09-28T22:43:57.976Z,20.90
2022-09-28T22:46:29.322Z,20.80
2022-09-28T22:49:00.959Z,20.90
2022-09-28T22:51:31.614Z,20.90
2022-09-28T22:54:01.377Z,20.80
2022-09-28T22:56:31.380Z,20.90
2022-09-28T22:59:00.840Z,20.80
2022-09-28T23:01:31.170Z,20.80
2022-09-28T23:04:02.498Z,20.70
2022-09-28T23:06:31.588Z,20.70
2022-09-28T23:09:01.298Z,20.70
2022-09-28T23:11:31.003Z,20.80
2022-09-28T23:14:01.378Z,20.90
2022-09-28T23:16:30.616Z,20.90
2022-09-28T23:19:00.981Z,20.80
2022-09-28T23:21:30.156Z,20.80
2022-09-28T23:24:01.113Z,20.80
2022-09-28T23:26:31.926Z,20.70
2022-09-28T23:29:01.544Z,20.80
2022-09-28T23:31:32.798Z,20.50
2022-09-28T23:34:06.779Z,20.50
2022-09-28T23:36:36.044Z,20.70
2022-09-28T23:39:05.333Z,20.70
2022-09-28T23:41:34.276Z,20.60
2022-09-28T23:44:03.778Z,20.70
2022-09-28T23:46:32.847Z,20.70
2022-09-28T23:49:03.452Z,20.50
2022-09-28T23:51:32.871Z,20.40
2022-09-28T23:54:04.757Z,20.50
2022-09-28T23:56:34.584Z,20.70
2022-09-28T23:59:03.456Z,20.80
